CheckWX is a tool to help pilots better visualize weather data.  It is not intended as a substitute for an official pre-flight weather briefing.

20:25:16 UTC

KRNM METAR
Ramona Airport
Ramona, California, USA
Current

32 mins ago

KRNM 201953Z 27009G16KT 10SM CLR 20/09 A3000 RMK AO2 SLP150 T02000094
Observed
Apr-20 @ 19:53 UTC
Wind
  • 270° at 9 KTS
  • Gusting to 16 KTS
Visibility
10 SM
Flight Rules
VFR
Cloud Levels
  • Clear skies
Temperature
20°C / 68°F
Dewpoint
C / 48°F
Humidity
49%
Altimeter
30" Hg
Pressure
1015.92 hPa
Previous

2 hours ago

KRNM 201853Z 31007KT 10SM CLR 19/09 A3001 RMK AO2 SLP153 T01890094
Observed
Apr-20 @ 18:53 UTC
Wind
  • 310° at 7 KTS
Visibility
10 SM
Flight Rules
VFR
Cloud Levels
  • Clear skies
Temperature
19°C / 66°F
Dewpoint
C / 48°F
Humidity
52%
Altimeter
30.01" Hg
Pressure
1016.22 hPa
Previous

3 hours ago

KRNM 201753Z 28007KT 10SM SCT018 17/10 A3000 RMK AO2 SLP151 T01720100 10172 20083 53008
Observed
Apr-20 @ 17:53 UTC
Wind
  • 280° at 7 KTS
Visibility
10 SM
Flight Rules
VFR
Cloud Levels
  • Scattered at 1,800' AGL
Temperature
17°C / 63°F
Dewpoint
10°C / 50°F
Humidity
64%
Altimeter
30" Hg
Pressure
1015.92 hPa